sensor_id;sensor_type;location;lat;lon;timestamp;P1;durP1;ratioP1;P2;durP2;ratioP2
63312;SDS011;49442;45.640;13.812;2023-12-20T00:02:18;6.38;;;3.10;;
63312;SDS011;49442;45.640;13.812;2023-12-20T00:04:44;4.53;;;2.90;;
63312;SDS011;49442;45.640;13.812;2023-12-20T00:07:10;5.32;;;3.47;;
63312;SDS011;49442;45.640;13.812;2023-12-20T00:09:35;5.68;;;3.20;;
63312;SDS011;49442;45.640;13.812;2023-12-20T00:12:01;5.82;;;3.00;;
63312;SDS011;49442;45.640;13.812;2023-12-20T00:14:27;6.22;;;3.65;;
63312;SDS011;49442;45.640;13.812;2023-12-20T00:16:53;5.32;;;3.10;;
63312;SDS011;49442;45.640;13.812;2023-12-20T00:19:18;10.27;;;4.15;;
63312;SDS011;49442;45.640;13.812;2023-12-20T00:21:45;7.00;;;4.03;;
63312;SDS011;49442;45.640;13.812;2023-12-20T00:24:10;6.90;;;4.00;;
63312;SDS011;49442;45.640;13.812;2023-12-20T00:26:36;8.80;;;3.80;;
63312;SDS011;49442;45.640;13.812;2023-12-20T00:29:01;7.82;;;3.80;;
63312;SDS011;49442;45.640;13.812;2023-12-20T00:31:27;7.68;;;3.58;;
63312;SDS011;49442;45.640;13.812;2023-12-20T00:33:53;8.10;;;3.70;;
63312;SDS011;49442;45.640;13.812;2023-12-20T00:36:19;7.47;;;3.38;;
63312;SDS011;49442;45.640;13.812;2023-12-20T00:38:45;6.25;;;3.53;;
63312;SDS011;49442;45.640;13.812;2023-12-20T00:41:11;6.00;;;3.30;;
63312;SDS011;49442;45.640;13.812;2023-12-20T00:43:36;8.98;;;2.80;;
63312;SDS011;49442;45.640;13.812;2023-12-20T00:46:02;4.65;;;3.10;;
63312;SDS011;49442;45.640;13.812;2023-12-20T00:48:28;10.98;;;3.70;;
63312;SDS011;49442;45.640;13.812;2023-12-20T00:50:56;5.72;;;3.20;;
63312;SDS011;49442;45.640;13.812;2023-12-20T00:53:22;5.80;;;3.65;;
63312;SDS011;49442;45.640;13.812;2023-12-20T00:55:48;6.07;;;3.30;;
63312;SDS011;49442;45.640;13.812;2023-12-20T00:58:15;6.72;;;3.28;;
63312;SDS011;49442;45.640;13.812;2023-12-20T01:00:41;6.13;;;3.13;;
63312;SDS011;49442;45.640;13.812;2023-12-20T01:03:09;6.05;;;2.97;;
63312;SDS011;49442;45.640;13.812;2023-12-20T01:05:35;6.78;;;3.00;;
63312;SDS011;49442;45.640;13.812;2023-12-20T01:08:00;3.75;;;2.45;;
63312;SDS011;49442;45.640;13.812;2023-12-20T01:10:28;4.97;;;2.25;;
63312;SDS011;49442;45.640;13.812;2023-12-20T01:12:54;4.18;;;3.05;;
63312;SDS011;49442;45.640;13.812;2023-12-20T01:15:20;6.65;;;2.78;;
63312;SDS011;49442;45.640;13.812;2023-12-20T01:17:46;3.78;;;2.25;;
63312;SDS011;49442;45.640;13.812;2023-12-20T01:20:12;6.93;;;3.38;;
63312;SDS011;49442;45.640;13.812;2023-12-20T01:22:38;4.70;;;2.60;;
63312;SDS011;49442;45.640;13.812;2023-12-20T01:25:04;5.03;;;2.92;;
63312;SDS011;49442;45.640;13.812;2023-12-20T01:27:30;5.13;;;2.83;;
63312;SDS011;49442;45.640;13.812;2023-12-20T01:29:56;7.10;;;3.00;;
63312;SDS011;49442;45.640;13.812;2023-12-20T01:32:22;4.38;;;2.60;;
63312;SDS011;49442;45.640;13.812;2023-12-20T01:34:47;5.07;;;2.85;;
63312;SDS011;49442;45.640;13.812;2023-12-20T01:37:13;4.53;;;2.45;;
63312;SDS011;49442;45.640;13.812;2023-12-20T01:39:39;4.05;;;2.33;;
63312;SDS011;49442;45.640;13.812;2023-12-20T01:42:05;2.97;;;2.17;;
63312;SDS011;49442;45.640;13.812;2023-12-20T01:44:30;4.30;;;2.15;;
63312;SDS011;49442;45.640;13.812;2023-12-20T01:46:56;3.97;;;2.38;;
63312;SDS011;49442;45.640;13.812;2023-12-20T01:49:22;4.60;;;2.35;;
63312;SDS011;49442;45.640;13.812;2023-12-20T01:51:48;5.05;;;2.92;;
63312;SDS011;49442;45.640;13.812;2023-12-20T01:54:15;3.97;;;2.75;;
63312;SDS011;49442;45.640;13.812;2023-12-20T01:56:41;5.28;;;2.50;;
63312;SDS011;49442;45.640;13.812;2023-12-20T01:59:07;4.10;;;2.58;;
63312;SDS011;49442;45.640;13.812;2023-12-20T02:01:34;6.43;;;2.53;;
63312;SDS011;49442;45.640;13.812;2023-12-20T02:04:00;2.78;;;2.20;;
63312;SDS011;49442;45.640;13.812;2023-12-20T02:06:30;3.88;;;2.30;;
63312;SDS011;49442;45.640;13.812;2023-12-20T02:11:25;4.38;;;2.25;;
63312;SDS011;49442;45.640;13.812;2023-12-20T02:13:51;4.35;;;2.50;;
63312;SDS011;49442;45.640;13.812;2023-12-20T02:16:18;4.93;;;2.42;;
63312;SDS011;49442;45.640;13.812;2023-12-20T02:18:44;4.65;;;2.20;;
63312;SDS011;49442;45.640;13.812;2023-12-20T02:21:10;2.75;;;2.05;;
63312;SDS011;49442;45.640;13.812;2023-12-20T02:23:35;2.40;;;1.80;;
63312;SDS011;49442;45.640;13.812;2023-12-20T02:26:02;3.30;;;1.92;;
63312;SDS011;49442;45.640;13.812;2023-12-20T02:28:29;2.75;;;2.10;;
63312;SDS011;49442;45.640;13.812;2023-12-20T02:30:55;3.05;;;1.95;;
63312;SDS011;49442;45.640;13.812;2023-12-20T02:33:21;3.17;;;1.95;;
63312;SDS011;49442;45.640;13.812;2023-12-20T02:35:47;3.10;;;1.90;;
63312;SDS011;49442;45.640;13.812;2023-12-20T02:38:12;4.63;;;1.88;;
63312;SDS011;49442;45.640;13.812;2023-12-20T02:40:38;3.97;;;2.42;;
63312;SDS011;49442;45.640;13.812;2023-12-20T02:43:04;2.83;;;1.95;;
63312;SDS011;49442;45.640;13.812;2023-12-20T02:45:29;3.40;;;1.90;;
63312;SDS011;49442;45.640;13.812;2023-12-20T02:47:55;2.85;;;1.77;;
63312;SDS011;49442;45.640;13.812;2023-12-20T02:50:21;3.50;;;2.03;;
63312;SDS011;49442;45.640;13.812;2023-12-20T02:52:47;3.15;;;1.77;;
63312;SDS011;49442;45.640;13.812;2023-12-20T02:55:12;3.95;;;1.83;;
63312;SDS011;49442;45.640;13.812;2023-12-20T02:57:38;3.28;;;2.38;;
63312;SDS011;49442;45.640;13.812;2023-12-20T03:00:08;6.40;;;2.70;;
63312;SDS011;49442;45.640;13.812;2023-12-20T03:02:35;7.35;;;2.47;;
63312;SDS011;49442;45.640;13.812;2023-12-20T03:05:01;6.50;;;3.03;;
63312;SDS011;49442;45.640;13.812;2023-12-20T03:07:27;4.45;;;2.22;;
63312;SDS011;49442;45.640;13.812;2023-12-20T03:09:53;4.97;;;2.40;;
63312;SDS011;49442;45.640;13.812;2023-12-20T03:12:19;5.13;;;2.40;;
63312;SDS011;49442;45.640;13.812;2023-12-20T03:14:45;9.55;;;2.55;;
63312;SDS011;49442;45.640;13.812;2023-12-20T03:17:10;3.33;;;1.98;;
63312;SDS011;49442;45.640;13.812;2023-12-20T03:19:36;4.78;;;2.47;;
63312;SDS011;49442;45.640;13.812;2023-12-20T03:22:01;6.80;;;2.72;;
63312;SDS011;49442;45.640;13.812;2023-12-20T03:24:27;6.97;;;2.97;;
63312;SDS011;49442;45.640;13.812;2023-12-20T03:26:53;6.35;;;3.05;;
63312;SDS011;49442;45.640;13.812;2023-12-20T03:29:19;7.80;;;3.42;;
63312;SDS011;49442;45.640;13.812;2023-12-20T03:31:44;9.35;;;3.58;;
63312;SDS011;49442;45.640;13.812;2023-12-20T03:34:10;7.28;;;3.20;;
63312;SDS011;49442;45.640;13.812;2023-12-20T03:36:36;5.32;;;2.92;;
63312;SDS011;49442;45.640;13.812;2023-12-20T03:39:02;7.47;;;3.50;;
63312;SDS011;49442;45.640;13.812;2023-12-20T03:41:28;7.35;;;3.00;;
63312;SDS011;49442;45.640;13.812;2023-12-20T03:43:54;6.25;;;3.20;;
63312;SDS011;49442;45.640;13.812;2023-12-20T03:46:20;5.75;;;2.90;;
63312;SDS011;49442;45.640;13.812;2023-12-20T03:48:45;3.95;;;2.30;;
63312;SDS011;49442;45.640;13.812;2023-12-20T03:51:11;6.63;;;2.50;;
63312;SDS011;49442;45.640;13.812;2023-12-20T03:53:37;4.10;;;2.58;;
63312;SDS011;49442;45.640;13.812;2023-12-20T03:56:02;6.07;;;3.08;;
63312;SDS011;49442;45.640;13.812;2023-12-20T03:58:28;5.07;;;2.63;;
63312;SDS011;49442;45.640;13.812;2023-12-20T04:00:54;4.40;;;2.65;;
63312;SDS011;49442;45.640;13.812;2023-12-20T04:03:20;4.18;;;2.55;;
63312;SDS011;49442;45.640;13.812;2023-12-20T04:05:45;6.65;;;3.42;;
63312;SDS011;49442;45.640;13.812;2023-12-20T04:08:11;8.60;;;3.75;;
63312;SDS011;49442;45.640;13.812;2023-12-20T04:10:37;7.47;;;3.40;;
63312;SDS011;49442;45.640;13.812;2023-12-20T04:13:03;7.25;;;2.63;;
63312;SDS011;49442;45.640;13.812;2023-12-20T04:15:29;7.45;;;3.85;;
63312;SDS011;49442;45.640;13.812;2023-12-20T04:17:55;4.97;;;2.65;;
63312;SDS011;49442;45.640;13.812;2023-12-20T04:20:20;5.90;;;3.33;;
63312;SDS011;49442;45.640;13.812;2023-12-20T04:22:46;4.35;;;2.63;;
63312;SDS011;49442;45.640;13.812;2023-12-20T04:25:12;9.65;;;2.88;;
63312;SDS011;49442;45.640;13.812;2023-12-20T04:27:37;5.18;;;2.75;;
63312;SDS011;49442;45.640;13.812;2023-12-20T04:30:03;7.28;;;3.38;;
63312;SDS011;49442;45.640;13.812;2023-12-20T04:32:29;4.82;;;2.83;;
63312;SDS011;49442;45.640;13.812;2023-12-20T04:34:55;8.15;;;3.60;;
63312;SDS011;49442;45.640;13.812;2023-12-20T04:37:20;6.75;;;3.80;;
63312;SDS011;49442;45.640;13.812;2023-12-20T04:39:46;6.50;;;3.08;;
63312;SDS011;49442;45.640;13.812;2023-12-20T04:42:12;6.60;;;3.55;;
63312;SDS011;49442;45.640;13.812;2023-12-20T04:44:38;6.15;;;2.97;;
63312;SDS011;49442;45.640;13.812;2023-12-20T04:47:03;5.90;;;2.40;;
63312;SDS011;49442;45.640;13.812;2023-12-20T04:49:29;5.03;;;2.15;;
63312;SDS011;49442;45.640;13.812;2023-12-20T04:51:55;4.78;;;3.10;;
63312;SDS011;49442;45.640;13.812;2023-12-20T04:54:21;9.70;;;2.35;;
63312;SDS011;49442;45.640;13.812;2023-12-20T04:56:47;4.22;;;2.35;;
63312;SDS011;49442;45.640;13.812;2023-12-20T04:59:13;5.22;;;2.10;;
63312;SDS011;49442;45.640;13.812;2023-12-20T05:01:38;5.95;;;2.30;;
63312;SDS011;49442;45.640;13.812;2023-12-20T05:04:04;2.85;;;1.85;;
63312;SDS011;49442;45.640;13.812;2023-12-20T05:06:30;4.85;;;2.35;;
63312;SDS011;49442;45.640;13.812;2023-12-20T05:08:55;2.40;;;1.67;;
63312;SDS011;49442;45.640;13.812;2023-12-20T05:11:21;2.67;;;1.70;;
63312;SDS011;49442;45.640;13.812;2023-12-20T05:13:47;2.78;;;1.92;;
63312;SDS011;49442;45.640;13.812;2023-12-20T05:16:13;4.38;;;2.65;;
63312;SDS011;49442;45.640;13.812;2023-12-20T05:18:39;3.88;;;2.20;;
63312;SDS011;49442;45.640;13.812;2023-12-20T05:21:05;6.50;;;2.45;;
63312;SDS011;49442;45.640;13.812;2023-12-20T05:23:31;6.75;;;2.35;;
63312;SDS011;49442;45.640;13.812;2023-12-20T05:25:57;4.68;;;2.80;;
63312;SDS011;49442;45.640;13.812;2023-12-20T05:28:24;4.07;;;2.63;;
63312;SDS011;49442;45.640;13.812;2023-12-20T05:30:49;6.32;;;2.85;;
63312;SDS011;49442;45.640;13.812;2023-12-20T05:33:15;3.05;;;1.98;;
63312;SDS011;49442;45.640;13.812;2023-12-20T05:35:41;3.83;;;2.53;;
63312;SDS011;49442;45.640;13.812;2023-12-20T05:38:06;4.38;;;2.17;;
63312;SDS011;49442;45.640;13.812;2023-12-20T05:40:32;5.95;;;2.70;;
63312;SDS011;49442;45.640;13.812;2023-12-20T05:42:58;4.45;;;2.42;;
63312;SDS011;49442;45.640;13.812;2023-12-20T05:45:24;3.63;;;2.55;;
63312;SDS011;49442;45.640;13.812;2023-12-20T05:47:49;3.50;;;2.28;;
63312;SDS011;49442;45.640;13.812;2023-12-20T05:50:15;5.70;;;3.20;;
63312;SDS011;49442;45.640;13.812;2023-12-20T05:52:41;6.45;;;3.35;;
63312;SDS011;49442;45.640;13.812;2023-12-20T05:55:06;8.63;;;3.65;;
63312;SDS011;49442;45.640;13.812;2023-12-20T05:57:32;5.30;;;2.90;;
63312;SDS011;49442;45.640;13.812;2023-12-20T05:59:58;5.75;;;3.63;;
63312;SDS011;49442;45.640;13.812;2023-12-20T06:02:24;7.00;;;3.33;;
63312;SDS011;49442;45.640;13.812;2023-12-20T06:04:49;6.43;;;3.42;;
63312;SDS011;49442;45.640;13.812;2023-12-20T06:07:15;5.40;;;3.40;;
63312;SDS011;49442;45.640;13.812;2023-12-20T06:09:41;6.03;;;3.30;;
63312;SDS011;49442;45.640;13.812;2023-12-20T06:12:07;5.13;;;3.40;;
63312;SDS011;49442;45.640;13.812;2023-12-20T06:14:33;7.80;;;3.28;;
63312;SDS011;49442;45.640;13.812;2023-12-20T06:17:00;6.70;;;2.97;;
63312;SDS011;49442;45.640;13.812;2023-12-20T06:19:26;5.38;;;3.33;;
63312;SDS011;49442;45.640;13.812;2023-12-20T06:21:52;9.43;;;3.65;;
63312;SDS011;49442;45.640;13.812;2023-12-20T06:24:17;6.22;;;3.47;;
63312;SDS011;49442;45.640;13.812;2023-12-20T06:26:43;6.03;;;3.38;;
63312;SDS011;49442;45.640;13.812;2023-12-20T06:29:09;7.53;;;3.70;;
63312;SDS011;49442;45.640;13.812;2023-12-20T06:31:34;9.90;;;3.72;;
63312;SDS011;49442;45.640;13.812;2023-12-20T06:34:00;10.55;;;4.20;;
63312;SDS011;49442;45.640;13.812;2023-12-20T06:36:26;9.88;;;4.30;;
63312;SDS011;49442;45.640;13.812;2023-12-20T06:38:52;5.45;;;3.65;;
63312;SDS011;49442;45.640;13.812;2023-12-20T06:41:17;8.60;;;3.85;;
63312;SDS011;49442;45.640;13.812;2023-12-20T06:43:43;7.60;;;4.38;;
63312;SDS011;49442;45.640;13.812;2023-12-20T06:46:09;6.40;;;3.88;;
63312;SDS011;49442;45.640;13.812;2023-12-20T06:48:35;7.10;;;4.15;;
63312;SDS011;49442;45.640;13.812;2023-12-20T06:51:01;11.80;;;3.90;;
63312;SDS011;49442;45.640;13.812;2023-12-20T06:53:29;9.30;;;4.07;;
63312;SDS011;49442;45.640;13.812;2023-12-20T06:55:55;6.88;;;3.55;;
63312;SDS011;49442;45.640;13.812;2023-12-20T06:58:21;5.78;;;3.00;;
63312;SDS011;49442;45.640;13.812;2023-12-20T07:00:48;5.00;;;2.97;;
63312;SDS011;49442;45.640;13.812;2023-12-20T07:03:16;8.93;;;3.28;;
63312;SDS011;49442;45.640;13.812;2023-12-20T07:05:42;9.90;;;3.30;;
63312;SDS011;49442;45.640;13.812;2023-12-20T07:08:09;5.60;;;3.25;;
63312;SDS011;49442;45.640;13.812;2023-12-20T07:10:35;37.20;;;5.25;;
63312;SDS011;49442;45.640;13.812;2023-12-20T07:13:01;32.75;;;6.15;;
63312;SDS011;49442;45.640;13.812;2023-12-20T07:15:27;20.05;;;5.70;;
63312;SDS011;49442;45.640;13.812;2023-12-20T07:17:54;8.35;;;3.08;;
63312;SDS011;49442;45.640;13.812;2023-12-20T07:20:20;11.80;;;5.07;;
63312;SDS011;49442;45.640;13.812;2023-12-20T07:22:46;18.50;;;9.63;;
63312;SDS011;49442;45.640;13.812;2023-12-20T07:25:11;12.32;;;6.78;;
63312;SDS011;49442;45.640;13.812;2023-12-20T07:27:37;17.88;;;7.45;;
63312;SDS011;49442;45.640;13.812;2023-12-20T07:30:03;10.23;;;5.90;;
63312;SDS011;49442;45.640;13.812;2023-12-20T07:32:29;20.08;;;13.95;;
63312;SDS011;49442;45.640;13.812;2023-12-20T07:34:55;23.48;;;16.55;;
63312;SDS011;49442;45.640;13.812;2023-12-20T07:37:21;11.93;;;8.73;;
63312;SDS011;49442;45.640;13.812;2023-12-20T07:39:52;12.57;;;9.25;;
63312;SDS011;49442;45.640;13.812;2023-12-20T07:42:18;15.10;;;10.75;;
63312;SDS011;49442;45.640;13.812;2023-12-20T07:44:45;10.32;;;5.60;;
63312;SDS011;49442;45.640;13.812;2023-12-20T07:47:11;10.25;;;5.05;;
63312;SDS011;49442;45.640;13.812;2023-12-20T07:49:43;14.68;;;7.45;;
63312;SDS011;49442;45.640;13.812;2023-12-20T07:52:10;16.40;;;6.30;;
63312;SDS011;49442;45.640;13.812;2023-12-20T07:54:36;8.82;;;4.57;;
63312;SDS011;49442;45.640;13.812;2023-12-20T07:57:02;9.60;;;4.45;;
63312;SDS011;49442;45.640;13.812;2023-12-20T07:59:28;8.18;;;4.30;;
63312;SDS011;49442;45.640;13.812;2023-12-20T08:01:54;11.65;;;3.80;;
63312;SDS011;49442;45.640;13.812;2023-12-20T08:04:19;9.90;;;4.15;;
63312;SDS011;49442;45.640;13.812;2023-12-20T08:06:45;12.98;;;3.83;;
63312;SDS011;49442;45.640;13.812;2023-12-20T08:09:11;8.82;;;3.35;;
63312;SDS011;49442;45.640;13.812;2023-12-20T08:11:36;11.75;;;3.13;;
63312;SDS011;49442;45.640;13.812;2023-12-20T08:14:02;8.10;;;3.28;;
63312;SDS011;49442;45.640;13.812;2023-12-20T08:16:28;9.73;;;3.35;;
63312;SDS011;49442;45.640;13.812;2023-12-20T08:18:53;5.13;;;3.40;;
63312;SDS011;49442;45.640;13.812;2023-12-20T08:21:20;4.85;;;2.63;;
63312;SDS011;49442;45.640;13.812;2023-12-20T08:23:47;6.97;;;2.72;;
63312;SDS011;49442;45.640;13.812;2023-12-20T08:26:14;6.72;;;2.63;;
63312;SDS011;49442;45.640;13.812;2023-12-20T08:28:46;18.70;;;3.40;;
63312;SDS011;49442;45.640;13.812;2023-12-20T08:31:15;13.73;;;3.10;;
63312;SDS011;49442;45.640;13.812;2023-12-20T08:33:45;17.30;;;3.42;;
63312;SDS011;49442;45.640;13.812;2023-12-20T08:36:12;23.40;;;4.18;;
63312;SDS011;49442;45.640;13.812;2023-12-20T08:38:38;18.60;;;3.33;;
63312;SDS011;49442;45.640;13.812;2023-12-20T08:41:04;16.00;;;4.10;;
63312;SDS011;49442;45.640;13.812;2023-12-20T08:43:30;22.15;;;3.35;;
63312;SDS011;49442;45.640;13.812;2023-12-20T08:45:56;27.00;;;3.47;;
63312;SDS011;49442;45.640;13.812;2023-12-20T08:48:22;21.20;;;4.65;;
63312;SDS011;49442;45.640;13.812;2023-12-20T08:50:48;24.13;;;4.55;;
63312;SDS011;49442;45.640;13.812;2023-12-20T08:53:15;14.75;;;3.40;;
63312;SDS011;49442;45.640;13.812;2023-12-20T08:55:42;19.17;;;2.92;;
63312;SDS011;49442;45.640;13.812;2023-12-20T08:58:07;18.20;;;3.42;;
63312;SDS011;49442;45.640;13.812;2023-12-20T09:00:34;20.27;;;3.08;;
63312;SDS011;49442;45.640;13.812;2023-12-20T09:03:00;14.10;;;3.10;;
63312;SDS011;49442;45.640;13.812;2023-12-20T09:05:26;11.65;;;3.13;;
63312;SDS011;49442;45.640;13.812;2023-12-20T09:07:52;16.77;;;3.40;;
63312;SDS011;49442;45.640;13.812;2023-12-20T09:10:17;10.18;;;3.80;;
63312;SDS011;49442;45.640;13.812;2023-12-20T09:12:47;11.52;;;4.18;;
63312;SDS011;49442;45.640;13.812;2023-12-20T09:15:14;15.27;;;4.25;;
63312;SDS011;49442;45.640;13.812;2023-12-20T09:17:40;7.45;;;3.88;;
63312;SDS011;49442;45.640;13.812;2023-12-20T09:20:06;11.45;;;3.38;;
63312;SDS011;49442;45.640;13.812;2023-12-20T09:22:33;7.88;;;3.63;;
63312;SDS011;49442;45.640;13.812;2023-12-20T09:24:59;12.55;;;3.63;;
63312;SDS011;49442;45.640;13.812;2023-12-20T09:27:26;8.43;;;3.10;;
63312;SDS011;49442;45.640;13.812;2023-12-20T09:29:52;9.18;;;3.72;;
63312;SDS011;49442;45.640;13.812;2023-12-20T09:32:18;10.68;;;4.55;;
63312;SDS011;49442;45.640;13.812;2023-12-20T09:34:45;8.77;;;5.22;;
63312;SDS011;49442;45.640;13.812;2023-12-20T09:37:12;11.35;;;4.72;;
63312;SDS011;49442;45.640;13.812;2023-12-20T09:39:38;8.23;;;4.47;;
63312;SDS011;49442;45.640;13.812;2023-12-20T09:42:04;7.88;;;4.65;;
63312;SDS011;49442;45.640;13.812;2023-12-20T09:44:31;9.05;;;4.28;;
63312;SDS011;49442;45.640;13.812;2023-12-20T09:46:59;7.72;;;5.40;;
63312;SDS011;49442;45.640;13.812;2023-12-20T09:49:28;10.23;;;4.45;;
63312;SDS011;49442;45.640;13.812;2023-12-20T09:51:55;8.35;;;4.43;;
63312;SDS011;49442;45.640;13.812;2023-12-20T09:54:22;9.05;;;4.10;;
63312;SDS011;49442;45.640;13.812;2023-12-20T09:56:49;6.90;;;4.20;;
63312;SDS011;49442;45.640;13.812;2023-12-20T09:59:15;10.77;;;4.80;;
63312;SDS011;49442;45.640;13.812;2023-12-20T10:01:41;10.18;;;4.13;;
63312;SDS011;49442;45.640;13.812;2023-12-20T10:04:08;9.40;;;4.25;;
63312;SDS011;49442;45.640;13.812;2023-12-20T10:06:40;9.32;;;4.20;;
63312;SDS011;49442;45.640;13.812;2023-12-20T10:09:06;6.75;;;3.92;;
63312;SDS011;49442;45.640;13.812;2023-12-20T10:11:32;7.55;;;4.20;;
63312;SDS011;49442;45.640;13.812;2023-12-20T10:13:59;6.97;;;3.95;;
63312;SDS011;49442;45.640;13.812;2023-12-20T10:16:28;5.70;;;3.83;;
63312;SDS011;49442;45.640;13.812;2023-12-20T10:18:54;4.70;;;3.00;;
63312;SDS011;49442;45.640;13.812;2023-12-20T10:21:21;4.88;;;3.30;;
63312;SDS011;49442;45.640;13.812;2023-12-20T10:23:47;4.22;;;3.45;;
63312;SDS011;49442;45.640;13.812;2023-12-20T10:26:19;3.60;;;2.80;;
63312;SDS011;49442;45.640;13.812;2023-12-20T10:29:01;12.90;;;3.47;;
63312;SDS011;49442;45.640;13.812;2023-12-20T10:31:30;6.03;;;3.20;;
63312;SDS011;49442;45.640;13.812;2023-12-20T10:33:57;7.93;;;3.28;;
63312;SDS011;49442;45.640;13.812;2023-12-20T10:36:27;5.05;;;3.53;;
63312;SDS011;49442;45.640;13.812;2023-12-20T10:38:55;10.05;;;4.63;;
63312;SDS011;49442;45.640;13.812;2023-12-20T10:41:27;6.60;;;4.40;;
63312;SDS011;49442;45.640;13.812;2023-12-20T10:44:00;7.30;;;5.07;;
63312;SDS011;49442;45.640;13.812;2023-12-20T10:46:33;7.68;;;5.40;;
63312;SDS011;49442;45.640;13.812;2023-12-20T10:48:59;11.18;;;4.78;;
63312;SDS011;49442;45.640;13.812;2023-12-20T10:51:27;6.20;;;4.70;;
63312;SDS011;49442;45.640;13.812;2023-12-20T10:53:55;7.82;;;4.80;;
63312;SDS011;49442;45.640;13.812;2023-12-20T10:56:21;7.30;;;3.78;;
63312;SDS011;49442;45.640;13.812;2023-12-20T10:58:48;7.18;;;3.38;;
63312;SDS011;49442;45.640;13.812;2023-12-20T11:01:15;7.78;;;3.95;;
63312;SDS011;49442;45.640;13.812;2023-12-20T11:03:44;6.57;;;4.50;;
63312;SDS011;49442;45.640;13.812;2023-12-20T11:14:01;9.05;;;4.63;;
63312;SDS011;49442;45.640;13.812;2023-12-20T11:16:36;7.13;;;4.20;;
63312;SDS011;49442;45.640;13.812;2023-12-20T11:19:05;5.93;;;4.18;;
63312;SDS011;49442;45.640;13.812;2023-12-20T11:21:32;5.75;;;3.83;;
63312;SDS011;49442;45.640;13.812;2023-12-20T11:23:58;7.95;;;5.63;;
63312;SDS011;49442;45.640;13.812;2023-12-20T11:26:28;7.13;;;5.60;;
63312;SDS011;49442;45.640;13.812;2023-12-20T11:29:05;9.43;;;5.13;;
63312;SDS011;49442;45.640;13.812;2023-12-20T11:32:02;5.43;;;4.00;;
63312;SDS011;49442;45.640;13.812;2023-12-20T11:34:32;4.78;;;3.53;;
63312;SDS011;49442;45.640;13.812;2023-12-20T11:37:01;4.63;;;3.80;;
63312;SDS011;49442;45.640;13.812;2023-12-20T11:39:28;7.45;;;4.90;;
63312;SDS011;49442;45.640;13.812;2023-12-20T11:41:56;4.85;;;3.85;;
63312;SDS011;49442;45.640;13.812;2023-12-20T11:44:22;5.60;;;4.30;;
63312;SDS011;49442;45.640;13.812;2023-12-20T11:46:50;6.20;;;4.18;;
63312;SDS011;49442;45.640;13.812;2023-12-20T11:49:16;6.40;;;3.95;;
63312;SDS011;49442;45.640;13.812;2023-12-20T11:51:41;6.22;;;4.07;;
63312;SDS011;49442;45.640;13.812;2023-12-20T11:54:08;6.57;;;4.35;;
63312;SDS011;49442;45.640;13.812;2023-12-20T11:56:35;8.52;;;4.53;;
63312;SDS011;49442;45.640;13.812;2023-12-20T11:59:01;8.27;;;4.90;;
63312;SDS011;49442;45.640;13.812;2023-12-20T12:01:27;6.70;;;4.05;;
63312;SDS011;49442;45.640;13.812;2023-12-20T12:04:05;8.27;;;5.07;;
63312;SDS011;49442;45.640;13.812;2023-12-20T12:06:31;11.35;;;4.90;;
63312;SDS011;49442;45.640;13.812;2023-12-20T12:08:57;9.00;;;5.15;;
63312;SDS011;49442;45.640;13.812;2023-12-20T12:11:23;14.63;;;5.68;;
63312;SDS011;49442;45.640;13.812;2023-12-20T12:13:49;8.18;;;5.15;;
63312;SDS011;49442;45.640;13.812;2023-12-20T12:16:18;7.45;;;4.80;;
63312;SDS011;49442;45.640;13.812;2023-12-20T12:18:45;7.07;;;4.78;;
63312;SDS011;49442;45.640;13.812;2023-12-20T12:21:11;8.07;;;4.63;;
63312;SDS011;49442;45.640;13.812;2023-12-20T12:23:45;9.77;;;5.13;;
63312;SDS011;49442;45.640;13.812;2023-12-20T12:26:11;6.28;;;4.43;;
63312;SDS011;49442;45.640;13.812;2023-12-20T12:28:37;8.98;;;4.85;;
63312;SDS011;49442;45.640;13.812;2023-12-20T12:31:05;7.32;;;4.85;;
63312;SDS011;49442;45.640;13.812;2023-12-20T12:33:31;7.35;;;4.55;;
63312;SDS011;49442;45.640;13.812;2023-12-20T12:35:56;5.95;;;4.55;;
63312;SDS011;49442;45.640;13.812;2023-12-20T12:38:23;9.90;;;5.57;;
63312;SDS011;49442;45.640;13.812;2023-12-20T12:40:49;6.70;;;4.60;;
63312;SDS011;49442;45.640;13.812;2023-12-20T12:43:15;10.98;;;4.57;;
63312;SDS011;49442;45.640;13.812;2023-12-20T12:45:41;7.20;;;4.60;;
63312;SDS011;49442;45.640;13.812;2023-12-20T12:48:07;8.73;;;5.18;;
63312;SDS011;49442;45.640;13.812;2023-12-20T12:50:32;11.15;;;3.75;;
63312;SDS011;49442;45.640;13.812;2023-12-20T12:52:58;10.85;;;5.45;;
63312;SDS011;49442;45.640;13.812;2023-12-20T12:55:24;9.75;;;5.30;;
63312;SDS011;49442;45.640;13.812;2023-12-20T12:57:49;9.20;;;5.07;;
63312;SDS011;49442;45.640;13.812;2023-12-20T13:00:15;7.40;;;5.15;;
63312;SDS011;49442;45.640;13.812;2023-12-20T13:02:41;11.75;;;8.85;;
63312;SDS011;49442;45.640;13.812;2023-12-20T13:05:07;9.75;;;7.10;;
63312;SDS011;49442;45.640;13.812;2023-12-20T13:07:33;12.55;;;6.82;;
63312;SDS011;49442;45.640;13.812;2023-12-20T13:09:59;10.15;;;7.53;;
63312;SDS011;49442;45.640;13.812;2023-12-20T13:12:25;10.57;;;6.25;;
63312;SDS011;49442;45.640;13.812;2023-12-20T13:14:51;11.88;;;6.07;;
63312;SDS011;49442;45.640;13.812;2023-12-20T13:17:16;9.80;;;6.25;;
63312;SDS011;49442;45.640;13.812;2023-12-20T13:19:42;13.48;;;6.18;;
63312;SDS011;49442;45.640;13.812;2023-12-20T13:22:08;13.80;;;7.35;;
63312;SDS011;49442;45.640;13.812;2023-12-20T13:24:34;12.98;;;6.72;;
63312;SDS011;49442;45.640;13.812;2023-12-20T13:26:59;7.72;;;5.35;;
63312;SDS011;49442;45.640;13.812;2023-12-20T13:29:25;10.50;;;5.97;;
63312;SDS011;49442;45.640;13.812;2023-12-20T13:31:54;7.80;;;5.65;;
63312;SDS011;49442;45.640;13.812;2023-12-20T13:34:19;8.85;;;5.40;;
63312;SDS011;49442;45.640;13.812;2023-12-20T13:36:46;8.75;;;6.38;;
63312;SDS011;49442;45.640;13.812;2023-12-20T13:39:12;10.52;;;6.32;;
63312;SDS011;49442;45.640;13.812;2023-12-20T13:41:39;9.32;;;6.45;;
63312;SDS011;49442;45.640;13.812;2023-12-20T13:44:04;8.30;;;5.85;;
63312;SDS011;49442;45.640;13.812;2023-12-20T13:46:30;10.57;;;5.88;;
63312;SDS011;49442;45.640;13.812;2023-12-20T13:48:56;6.93;;;4.75;;
63312;SDS011;49442;45.640;13.812;2023-12-20T13:51:22;7.57;;;5.22;;
63312;SDS011;49442;45.640;13.812;2023-12-20T13:53:48;8.27;;;5.18;;
63312;SDS011;49442;45.640;13.812;2023-12-20T13:56:14;10.52;;;5.22;;
63312;SDS011;49442;45.640;13.812;2023-12-20T13:58:40;8.40;;;5.55;;
63312;SDS011;49442;45.640;13.812;2023-12-20T14:01:09;9.38;;;5.15;;
63312;SDS011;49442;45.640;13.812;2023-12-20T14:03:36;7.38;;;4.97;;
63312;SDS011;49442;45.640;13.812;2023-12-20T14:06:01;6.28;;;5.22;;
63312;SDS011;49442;45.640;13.812;2023-12-20T14:08:27;11.15;;;5.75;;
63312;SDS011;49442;45.640;13.812;2023-12-20T14:10:53;6.45;;;5.07;;
63312;SDS011;49442;45.640;13.812;2023-12-20T14:13:18;6.78;;;4.85;;
63312;SDS011;49442;45.640;13.812;2023-12-20T14:15:46;6.63;;;5.07;;
63312;SDS011;49442;45.640;13.812;2023-12-20T14:18:12;8.45;;;5.35;;
63312;SDS011;49442;45.640;13.812;2023-12-20T14:20:40;9.05;;;5.55;;
63312;SDS011;49442;45.640;13.812;2023-12-20T14:23:07;7.47;;;5.80;;
63312;SDS011;49442;45.640;13.812;2023-12-20T14:25:34;9.20;;;7.07;;
63312;SDS011;49442;45.640;13.812;2023-12-20T14:28:02;13.60;;;7.07;;
63312;SDS011;49442;45.640;13.812;2023-12-20T14:30:28;13.07;;;6.80;;
63312;SDS011;49442;45.640;13.812;2023-12-20T14:32:54;15.85;;;7.07;;
63312;SDS011;49442;45.640;13.812;2023-12-20T14:35:20;9.63;;;6.45;;
63312;SDS011;49442;45.640;13.812;2023-12-20T14:37:45;15.77;;;8.13;;